Time;durP1;ratioP1;P1;durP2;ratioP2;P2;SDS_P1;SDS_P2;PMS_P1;PMS_P2;Temp;Humidity;BMP_temperature;BMP_pressure;BME280_temperature;BME280_humidity;BME280_pressure;Samples;Min_cycle;Max_cycle;Signal;HPM_P1;HPM_P2
2021/09/27 00:01:05;;;;;;;12.30;8.30;;;;;;;15.01;58.46;101002.31;117440;1182;23436;-59
2021/09/27 00:03:33;;;;;;;;;;;;;;;15.01;58.53;101003.93;117366;1185;22600;-59
2021/09/27 00:06:02;;;;;;;10.80;7.30;;;;;;;14.98;58.57;101003.80;117359;1185;21900;-59
2021/09/27 00:08:30;;;;;;;10.60;7.40;;;;;;;15.03;58.48;100999.10;117361;1188;21872;-59
2021/09/27 00:11:04;;;;;;;11.10;7.40;;;;;;;15.06;58.34;101005.06;117284;1184;23447;-59
2021/09/27 00:13:35;;;;;;;9.80;7.80;;;;;;;15.06;58.32;101003.82;117302;1185;21863;-59
2021/09/27 00:16:04;;;;;;;10.70;7.90;;;;;;;15.02;58.42;101003.52;117308;1186;23636;-59
2021/09/27 00:18:33;;;;;;;9.30;7.60;;;;;;;14.99;58.44;101008.20;117295;1185;21902;-59
2021/09/27 00:21:02;;;;;;;12.70;8.40;;;;;;;14.98;58.54;101006.65;117352;1186;21971;-59
2021/09/27 00:23:32;;;;;;;10.90;7.50;;;;;;;14.98;58.46;101008.77;117355;1185;23056;-59
2021/09/27 00:26:00;;;;;;;10.60;7.70;;;;;;;14.98;58.46;101010.52;117365;1189;21858;-59
2021/09/27 00:28:28;;;;;;;9.40;7.30;;;;;;;14.99;58.44;101007.84;117281;1185;21890;-56
2021/09/27 00:30:56;;;;;;;11.20;7.70;;;;;;;14.95;58.53;101010.40;117329;1185;21869;-56
2021/09/27 00:33:25;;;;;;;12.10;7.70;;;;;;;14.94;58.64;101014.84;117284;1185;23630;-59
2021/09/27 00:35:54;;;;;;;9.10;6.90;;;;;;;14.95;58.63;101016.94;117292;1186;21864;-59
2021/09/27 00:38:22;;;;;;;11.20;7.60;;;;;;;14.94;58.67;101020.50;117274;1182;21871;-59
2021/09/27 00:40:57;;;;;;;13.70;8.40;;;;;;;14.93;58.65;101026.35;117464;1185;21858;-59
2021/09/27 00:43:25;;;;;;;10.00;7.50;;;;;;;14.90;58.72;101027.83;117348;1185;21856;-59
2021/09/27 00:45:57;;;;;;;9.90;7.40;;;;;;;14.90;58.62;101028.88;117405;1186;22324;-59
2021/09/27 00:48:26;;;;;;;10.10;7.80;;;;;;;14.88;58.69;101029.80;117341;1185;21848;-59
2021/09/27 00:51:04;;;;;;;9.50;7.50;;;;;;;14.85;58.66;101025.95;117325;1188;21855;-59
2021/09/27 00:53:32;;;;;;;9.60;7.40;;;;;;;14.89;58.59;101025.20;117353;1188;21857;-59
2021/09/27 00:56:01;;;;;;;9.80;7.20;;;;;;;14.84;58.68;101028.63;117324;1189;21853;-59
2021/09/27 00:58:29;;;;;;;10.60;7.20;;;;;;;14.82;58.55;101031.15;117431;1185;21891;-59
2021/09/27 01:00:57;;;;;;;10.40;7.20;;;;;;;14.79;58.55;101028.39;117311;1188;21897;-59
2021/09/27 01:03:26;;;;;;;11.60;7.80;;;;;;;14.79;58.50;101025.20;117330;1184;22481;-59
2021/09/27 01:06:23;;;;;;;9.80;7.10;;;;;;;14.78;58.54;101027.35;117328;1185;21899;-59
2021/09/27 01:09:28;;;;;;;11.40;6.90;;;;;;;14.76;58.43;101025.98;117297;1185;21969;-59
2021/09/27 01:12:20;;;;;;;10.90;6.50;;;;;;;14.71;58.32;101027.30;117355;1185;21899;-59
2021/09/27 01:14:53;;;;;;;10.50;6.70;;;;;;;14.64;58.34;101028.29;117343;1183;21845;-59
2021/09/27 01:17:37;;;;;;;9.60;6.40;;;;;;;14.62;58.23;101028.86;117140;1186;21858;-59
2021/09/27 01:20:17;;;;;;;9.10;6.40;;;;;;;14.57;58.24;101031.23;117358;1185;21859;-59
2021/09/27 01:22:54;;;;;;;10.30;6.40;;;;;;;14.51;58.22;101031.89;117295;1185;21856;-59
2021/09/27 01:25:50;;;;;;;9.80;6.90;;;;;;;14.46;58.20;101026.85;117353;1185;23436;-59
2021/09/27 01:28:21;;;;;;;9.80;6.10;;;;;;;14.38;58.19;101028.21;117323;1189;21855;-59
2021/09/27 01:31:14;;;;;;;19.50;6.30;;;;;;;14.32;58.14;101029.57;117311;1185;21855;-56
2021/09/27 01:33:46;;;;;;;9.90;6.70;;;;;;;14.28;58.16;101032.64;117381;1186;21858;-57
2021/09/27 01:36:26;;;;;;;9.80;6.00;;;;;;;14.26;58.00;101029.49;117290;1185;21873;-57
2021/09/27 01:39:03;;;;;;;9.80;5.90;;;;;;;14.21;58.00;101025.70;117264;1185;21855;-56
2021/09/27 01:41:55;;;;;;;10.10;6.60;;;;;;;14.21;57.89;101029.39;117224;1185;21854;-56
2021/09/27 01:44:31;;;;;;;12.20;6.50;;;;;;;14.14;57.93;101028.81;117307;1185;21889;-57
2021/09/27 01:47:01;;;;;;;9.60;6.20;;;;;;;14.09;57.98;101029.43;117129;1186;21920;-57
2021/09/27 01:50:16;;;;;;;8.80;5.70;;;;;;;14.01;58.10;101030.26;117340;1185;21922;-56
2021/09/27 01:52:45;;;;;;;8.70;5.40;;;;;;;13.95;58.22;101034.23;117228;1185;21865;-56
2021/09/27 01:55:25;;;;;;;7.80;5.70;;;;;;;13.93;58.30;101034.98;117357;1184;22622;-57
2021/09/27 01:58:02;;;;;;;10.00;5.80;;;;;;;13.95;58.26;101034.75;117002;1184;23443;-56
2021/09/27 02:00:40;;;;;;;10.20;5.10;;;;;;;13.92;58.11;101033.21;117291;1185;21856;-57
2021/09/27 02:03:18;;;;;;;8.90;5.60;;;;;;;13.87;58.20;101037.02;117138;1187;22795;-56
2021/09/27 02:06:08;;;;;;;9.60;5.20;;;;;;;13.81;58.14;101035.86;117316;1182;22857;-56
2021/09/27 02:08:43;;;;;;;7.70;5.10;;;;;;;13.73;58.08;101043.05;117383;1185;21896;-56
2021/09/27 02:11:27;;;;;;;7.20;4.80;;;;;;;13.65;58.18;101043.67;117318;1186;21857;-56
2021/09/27 02:14:14;;;;;;;8.40;5.50;;;;;;;13.59;58.26;101045.52;117083;1186;23091;-56
2021/09/27 02:16:42;;;;;;;7.50;5.50;;;;;;;13.58;58.30;101050.13;117303;1186;21971;-56
2021/09/27 02:19:12;;;;;;;7.70;4.70;;;;;;;13.56;58.36;101048.92;117277;1187;22916;-56
2021/09/27 02:21:43;;;;;;;8.60;5.20;;;;;;;13.55;58.36;101050.71;117306;1186;23714;-56
2021/09/27 02:24:36;;;;;;;8.10;5.70;;;;;;;13.51;58.29;101045.80;117133;1186;21853;-56
2021/09/27 02:27:04;;;;;;;8.00;5.30;;;;;;;13.50;58.31;101043.17;117149;1186;21950;-56
2021/09/27 02:29:32;;;;;;;7.80;5.30;;;;;;;13.46;58.31;101046.23;117300;1186;21849;-56
2021/09/27 02:32:15;;;;;;;8.50;5.40;;;;;;;13.36;58.33;101047.23;117353;1185;23544;-57
2021/09/27 02:35:13;;;;;;;9.00;5.10;;;;;;;13.28;58.56;101052.42;117340;1188;21908;-56
2021/09/27 02:38:02;;;;;;;11.30;6.00;;;;;;;13.28;58.66;101053.67;117214;1186;21856;-57
2021/09/27 02:40:51;;;;;;;8.40;5.40;;;;;;;13.23;58.69;101054.61;117308;1188;21847;-56
2021/09/27 02:43:19;;;;;;;7.60;5.20;;;;;;;13.27;58.60;101057.37;117157;1187;21873;-56
2021/09/27 02:45:48;;;;;;;8.30;5.50;;;;;;;13.27;58.66;101056.85;117313;1185;21887;-56
2021/09/27 02:48:20;;;;;;;11.80;5.90;;;;;;;13.24;58.64;101053.91;117349;1185;23605;-56
2021/09/27 02:50:50;;;;;;;8.10;5.80;;;;;;;13.22;58.60;101054.45;117344;1185;22936;-56
2021/09/27 02:53:20;;;;;;;11.00;5.60;;;;;;;13.26;58.63;101054.57;117287;1185;21848;-56
2021/09/27 02:56:12;;;;;;;8.30;5.50;;;;;;;13.25;58.34;101051.05;117267;1185;21884;-56
2021/09/27 02:58:41;;;;;;;7.90;4.90;;;;;;;13.25;58.36;101050.17;117393;1185;21859;-56
2021/09/27 03:01:32;;;;;;;7.90;5.60;;;;;;;13.21;58.32;101048.30;117284;1185;21856;-56
2021/09/27 03:04:12;;;;;;;13.90;5.80;;;;;;;13.22;58.32;101055.86;117285;1185;23602;-56
2021/09/27 03:07:12;;;;;;;6.80;5.00;;;;;;;13.19;58.31;101052.38;117317;1188;21855;-56
2021/09/27 03:10:17;;;;;;;7.80;4.80;;;;;;;13.17;58.31;101053.63;117307;1185;23542;-56
2021/09/27 03:12:56;;;;;;;9.60;4.90;;;;;;;13.13;58.20;101057.73;117295;1185;21867;-56
2021/09/27 03:15:50;;;;;;;8.60;5.30;;;;;;;13.09;58.26;101060.41;117318;1186;21867;-56
2021/09/27 03:18:30;;;;;;;10.70;4.90;;;;;;;13.07;58.26;101062.90;117296;1185;23440;-56
2021/09/27 03:21:18;;;;;;;8.80;5.00;;;;;;;13.03;58.32;101064.55;117351;1185;23589;-57
2021/09/27 03:24:05;;;;;;;9.10;4.80;;;;;;;12.95;58.42;101064.97;117367;1176;21848;-56
2021/09/27 03:27:21;;;;;;;7.90;4.50;;;;;;;12.95;58.37;101065.16;117337;1185;22323;-56
2021/09/27 03:30:10;;;;;;;8.40;4.50;;;;;;;12.93;58.43;101069.58;117029;1188;21861;-56
2021/09/27 03:33:00;;;;;;;7.80;4.80;;;;;;;12.90;58.36;101074.37;117297;1186;21859;-56
2021/09/27 03:36:26;;;;;;;8.70;5.20;;;;;;;12.86;58.43;101078.63;117164;1187;21848;-56
2021/09/27 03:39:13;;;;;;;10.80;4.90;;;;;;;12.82;58.49;101081.86;116950;1189;21859;-56
2021/09/27 03:41:48;;;;;;;7.60;4.50;;;;;;;12.78;58.31;101081.72;116979;1189;21857;-56
2021/09/27 03:44:22;;;;;;;10.30;5.70;;;;;;;12.75;58.41;101078.58;117155;1186;21859;-56
2021/09/27 03:47:11;;;;;;;11.70;5.00;;;;;;;12.70;58.55;101079.52;117335;1186;21855;-56
2021/09/27 03:49:41;;;;;;;8.20;5.00;;;;;;;12.69;58.41;101083.21;117316;1185;22619;-56
2021/09/27 03:52:20;;;;;;;10.70;5.20;;;;;;;12.67;58.24;101086.95;117354;1185;21855;-56
2021/09/27 03:55:11;;;;;;;10.10;5.50;;;;;;;12.63;58.35;101088.20;117527;1182;23546;-56
2021/09/27 03:57:43;;;;;;;7.80;5.20;;;;;;;12.61;58.35;101086.45;117390;1185;21941;-56
2021/09/27 04:00:18;;;;;;;8.80;4.90;;;;;;;12.58;58.18;101089.65;117313;1186;22949;-56
2021/09/27 04:02:56;;;;;;;9.90;5.70;;;;;;;12.57;58.30;101089.50;117302;1185;22888;-56
2021/09/27 04:05:30;;;;;;;11.30;5.80;;;;;;;12.53;58.39;101093.77;117223;1186;21920;-56
2021/09/27 04:08:08;;;;;;;12.80;5.40;;;;;;;12.49;58.24;101093.25;117305;1182;21845;-56
2021/09/27 04:10:50;;;;;;;15.20;5.70;;;;;;;12.45;58.36;101092.05;117312;1189;21869;-56
2021/09/27 04:13:36;;;;;;;13.40;5.60;;;;;;;12.42;58.35;101093.66;117385;1185;23393;-56
2021/09/27 04:16:23;;;;;;;7.90;4.80;;;;;;;12.41;58.50;101094.38;117346;1185;21864;-57
2021/09/27 04:19:08;;;;;;;10.60;5.50;;;;;;;12.38;58.53;101090.88;117278;1185;22930;-56
2021/09/27 04:21:54;;;;;;;8.70;5.40;;;;;;;12.40;58.51;101093.16;117199;1189;21864;-57
2021/09/27 04:24:51;;;;;;;8.80;5.00;;;;;;;12.37;58.31;101095.47;117151;1185;22622;-56
2021/09/27 04:27:32;;;;;;;7.70;5.00;;;;;;;12.38;58.55;101095.98;117273;1185;22908;-57
2021/09/27 04:30:04;;;;;;;11.50;6.00;;;;;;;12.40;58.64;101094.21;117266;1186;23561;-57
2021/09/27 04:32:50;;;;;;;9.10;5.80;;;;;;;12.39;58.80;101096.15;117350;1185;23463;-56
2021/09/27 04:35:27;;;;;;;10.90;5.50;;;;;;;12.42;58.85;101095.24;117263;1185;21857;-56
2021/09/27 04:37:55;;;;;;;8.90;6.10;;;;;;;12.46;58.87;101096.27;117323;1185;23628;-56
2021/09/27 04:40:43;;;;;;;9.60;5.40;;;;;;;12.52;58.90;101092.89;117273;1189;21867;-56
2021/09/27 04:43:19;;;;;;;11.00;6.10;;;;;;;12.59;58.71;101095.27;117307;1183;22808;-57
2021/09/27 04:46:06;;;;;;;9.10;6.20;;;;;;;12.66;58.64;101095.92;117229;1185;21858;-57
2021/09/27 04:48:54;;;;;;;11.70;6.00;;;;;;;12.72;58.72;101092.16;117130;1183;24226;-57
2021/09/27 04:51:54;;;;;;;10.90;5.20;;;;;;;12.77;58.91;101093.36;117155;1185;21899;-57
2021/09/27 04:54:43;;;;;;;10.00;5.50;;;;;;;12.87;58.87;101090.77;117082;1187;21923;-57
2021/09/27 04:57:28;;;;;;;9.50;6.00;;;;;;;12.99;59.04;101093.65;117292;1185;21845;-58
2021/09/27 05:00:12;;;;;;;12.80;5.90;;;;;;;13.09;59.01;101095.30;117302;1184;21894;-58
2021/09/27 05:03:10;;;;;;;8.90;5.60;;;;;;;13.19;59.07;101096.60;117254;1185;23466;-58
2021/09/27 05:05:53;;;;;;;8.40;4.90;;;;;;;13.31;58.93;101100.68;117328;1180;22948;-58
2021/09/27 05:08:31;;;;;;;11.90;5.70;;;;;;;13.40;58.97;101103.77;117348;1186;23554;-57
2021/09/27 05:11:05;;;;;;;16.90;5.30;;;;;;;13.44;59.32;101108.67;117410;1185;21862;-58
2021/09/27 05:13:58;;;;;;;16.30;5.80;;;;;;;13.55;59.36;101103.94;117342;1183;23557;-57
2021/09/27 05:16:35;;;;;;;13.10;5.50;;;;;;;13.68;59.46;101102.54;117316;1185;21855;-61
2021/09/27 05:19:22;;;;;;;11.90;5.90;;;;;;;13.83;59.48;101099.15;117333;1186;23438;-58
2021/09/27 05:21:59;;;;;;;12.00;5.70;;;;;;;14.01;59.49;101098.36;117365;1182;23544;-61
2021/09/27 05:24:46;;;;;;;12.50;5.30;;;;;;;14.18;59.50;101100.94;117234;1185;21853;-62
2021/09/27 05:27:36;;;;;;;12.50;6.00;;;;;;;14.36;59.52;101097.12;117270;1185;21856;-62
2021/09/27 05:30:34;;;;;;;12.00;6.00;;;;;;;14.55;59.44;101102.27;117364;1185;22229;-60
2021/09/27 05:33:15;;;;;;;13.80;4.90;;;;;;;14.67;59.59;101106.30;117306;1186;23569;-60
2021/09/27 05:36:17;;;;;;;16.90;5.40;;;;;;;14.82;59.57;101105.71;117281;1185;21848;-61
2021/09/27 05:39:04;;;;;;;11.00;4.70;;;;;;;14.96;59.48;101101.20;117300;1185;22951;-60
2021/09/27 05:41:44;;;;;;;9.20;5.40;;;;;;;15.09;59.43;101098.83;117344;1185;21857;-60
2021/09/27 05:44:54;;;;;;;10.20;5.40;;;;;;;15.15;59.61;101104.02;117329;1185;23033;-60
2021/09/27 05:48:03;;;;;;;17.00;11.20;;;;;;;15.27;59.73;101105.56;117256;1189;22900;-61
2021/09/27 05:50:56;;;;;;;23.80;18.30;;;;;;;15.44;59.76;101111.40;117349;1189;22981;-61
2021/09/27 05:53:32;;;;;;;15.10;9.70;;;;;;;15.60;59.87;101110.01;117288;1189;21899;-61
2021/09/27 05:56:15;;;;;;;9.90;6.70;;;;;;;15.76;60.05;101112.48;117282;1185;22634;-61
2021/09/27 05:59:02;;;;;;;11.40;5.70;;;;;;;15.97;60.10;101109.04;117295;1189;21911;-61
2021/09/27 06:02:04;;;;;;;9.00;4.70;;;;;;;16.20;60.11;101109.39;117339;1180;23006;-62
2021/09/27 06:04:39;;;;;;;6.70;4.60;;;;;;;16.45;60.11;101108.95;117271;1185;22536;-62
2021/09/27 06:07:18;;;;;;;11.20;4.10;;;;;;;16.64;60.14;101105.65;117282;1185;22093;-62
2021/09/27 06:10:10;;;;;;;7.70;4.30;;;;;;;16.85;60.18;101102.61;117471;1185;23466;-62
2021/09/27 06:12:46;;;;;;;10.10;4.60;;;;;;;17.06;60.23;101100.66;117361;1184;22620;-62
2021/09/27 06:15:15;;;;;;;7.80;4.40;;;;;;;17.26;60.17;101112.34;117323;1186;21857;-62
2021/09/27 06:17:50;;;;;;;8.80;5.20;;;;;;;17.46;60.29;101110.70;117129;1189;21847;-62
2021/09/27 06:20:51;;;;;;;7.90;4.10;;;;;;;17.68;60.21;101105.79;117280;1185;21865;-62
2021/09/27 06:23:45;;;;;;;7.50;3.70;;;;;;;17.84;60.03;101110.08;117255;1186;22937;-63
2021/09/27 06:26:14;;;;;;;7.60;3.80;;;;;;;17.99;59.97;101108.05;117290;1185;22905;-63
2021/09/27 06:28:51;;;;;;;7.80;3.80;;;;;;;18.11;60.01;101109.64;117312;1188;21848;-63
2021/09/27 06:31:23;;;;;;;7.50;3.40;;;;;;;18.27;60.12;101113.39;117350;1185;23609;-62
2021/09/27 06:34:04;;;;;;;5.40;3.00;;;;;;;18.48;60.21;101108.44;117339;1186;21847;-63
2021/09/27 06:36:32;;;;;;;6.70;3.00;;;;;;;18.68;60.31;101101.34;117342;1182;22180;-62
2021/09/27 06:39:03;;;;;;;5.90;3.10;;;;;;;18.86;60.25;101099.83;117305;1186;23466;-62
2021/09/27 06:41:33;;;;;;;9.10;3.30;;;;;;;19.04;60.28;101103.86;117312;1186;21862;-62
2021/09/27 06:44:01;;;;;;;4.80;2.90;;;;;;;19.22;60.35;101103.40;117285;1181;22919;-62
2021/09/27 06:46:31;;;;;;;6.70;3.30;;;;;;;19.42;60.27;101104.95;117302;1185;21859;-62
2021/09/27 06:49:00;;;;;;;7.00;3.20;;;;;;;19.60;60.36;101105.86;117280;1186;23316;-62
2021/09/27 06:51:28;;;;;;;6.20;2.80;;;;;;;19.81;60.42;101105.98;117330;1186;21901;-63
2021/09/27 06:53:56;;;;;;;9.40;3.20;;;;;;;19.98;60.46;101108.00;117290;1182;24714;-62
2021/09/27 06:56:24;;;;;;;6.00;2.40;;;;;;;20.09;60.42;101105.77;117300;1186;21900;-62
2021/09/27 06:58:52;;;;;;;4.20;2.50;;;;;;;20.22;60.46;101103.80;117216;1188;21860;-62
2021/09/27 07:01:21;;;;;;;4.10;2.20;;;;;;;20.38;60.53;101107.59;117275;1183;24271;-63
2021/09/27 07:03:50;;;;;;;4.80;2.50;;;;;;;20.55;60.60;101105.13;117263;1186;22993;-63
2021/09/27 07:06:18;;;;;;;5.40;2.10;;;;;;;20.71;60.58;101104.11;117288;1189;21861;-63
2021/09/27 07:08:46;;;;;;;4.50;1.90;;;;;;;20.87;60.54;101104.16;117268;1185;23579;-63
2021/09/27 07:11:14;;;;;;;3.60;1.40;;;;;;;21.03;60.60;101103.98;117244;1186;22100;-62
2021/09/27 07:13:43;;;;;;;4.50;1.70;;;;;;;21.18;60.59;101106.15;117295;1185;21864;-63
2021/09/27 07:16:11;;;;;;;3.20;1.70;;;;;;;21.37;60.62;101111.02;117297;1186;23558;-57
2021/09/27 07:18:59;;;;;;;5.00;2.10;;;;;;;21.59;60.60;101109.64;117229;1182;23466;-57
2021/09/27 07:21:27;;;;;;;3.90;1.80;;;;;;;21.80;60.46;101108.68;117218;1186;21872;-57
2021/09/27 07:23:56;;;;;;;7.70;1.60;;;;;;;21.98;60.26;101107.45;117255;1182;21899;-58
2021/09/27 07:26:26;;;;;;;3.90;1.60;;;;;;;22.12;60.25;101113.73;117383;1185;22926;-56
2021/09/27 07:28:57;;;;;;;3.60;1.60;;;;;;;22.29;60.21;101113.86;117317;1185;21867;-57
2021/09/27 07:31:27;;;;;;;2.90;1.50;;;;;;;22.40;60.15;101112.01;117284;1183;22991;-59
2021/09/27 07:33:58;;;;;;;3.60;1.50;;;;;;;22.47;60.13;101115.46;117287;1182;21861;-61
2021/09/27 07:36:27;;;;;;;3.70;1.70;;;;;;;22.61;60.37;101115.45;117302;1185;21964;-62
2021/09/27 07:38:56;;;;;;;4.80;1.70;;;;;;;22.78;60.26;101112.81;117308;1182;21848;-69
2021/09/27 07:41:25;;;;;;;4.80;1.70;;;;;;;22.92;60.21;101111.22;117229;1186;22946;-58
2021/09/27 07:43:55;;;;;;;4.70;1.40;;;;;;;23.04;60.25;101109.81;117322;1183;22181;-65
2021/09/27 07:46:24;;;;;;;4.20;1.50;;;;;;;23.22;60.13;101105.70;117425;1182;22990;-64
2021/09/27 07:48:53;;;;;;;4.60;1.30;;;;;;;23.35;59.96;101109.66;117343;1185;21857;-63
2021/09/27 07:51:21;;;;;;;3.40;1.20;;;;;;;23.47;60.16;101110.27;117396;1189;21857;-61
2021/09/27 07:53:49;;;;;;;2.50;1.20;;;;;;;23.57;60.13;101110.61;117260;1186;22453;-60
2021/09/27 07:56:18;;;;;;;4.50;1.60;;;;;;;23.75;60.15;101104.98;117321;1186;23545;-60
2021/09/27 07:58:46;;;;;;;5.50;1.60;;;;;;;23.90;60.22;101108.42;117298;1185;21901;-60
2021/09/27 08:01:14;;;;;;;4.70;1.70;;;;;;;24.05;60.18;101108.65;117126;1186;23547;-60
2021/09/27 08:03:43;;;;;;;2.20;1.20;;;;;;;24.23;59.94;101105.67;117291;1185;22202;-60
2021/09/27 08:06:12;;;;;;;4.30;1.40;;;;;;;24.39;59.92;101108.11;117290;1186;21839;-60
2021/09/27 08:08:41;;;;;;;3.20;1.20;;;;;;;24.57;59.86;101110.33;117293;1183;22895;-60
2021/09/27 08:11:09;;;;;;;4.70;1.50;;;;;;;24.73;59.87;101110.10;117334;1185;22644;-60
2021/09/27 08:13:57;;;;;;;4.50;1.30;;;;;;;24.90;59.84;101110.34;117324;1189;22982;-60
2021/09/27 08:16:25;;;;;;;2.30;1.20;;;;;;;25.03;59.77;101106.34;117401;1185;23557;-60
2021/09/27 08:18:54;;;;;;;2.20;1.00;;;;;;;25.12;59.96;101100.19;117255;1184;22625;-60
2021/09/27 08:21:22;;;;;;;5.50;1.70;;;;;;;25.29;59.96;101102.17;117253;1189;21859;-61
2021/09/27 08:23:51;;;;;;;5.80;2.00;;;;;;;25.45;59.94;101104.83;117363;1185;23584;-60
2021/09/27 08:26:19;;;;;;;5.90;1.80;;;;;;;25.57;59.95;101103.52;117299;1185;21868;-62
2021/09/27 08:28:47;;;;;;;4.50;1.80;;;;;;;25.69;59.83;101100.60;117302;1181;23466;-62
2021/09/27 08:31:19;;;;;;;5.00;1.90;;;;;;;25.79;59.68;101099.09;117239;1185;21862;-62
2021/09/27 08:33:50;;;;;;;5.60;1.90;;;;;;;25.84;59.76;101096.59;117415;1182;23461;-63
2021/09/27 08:36:23;;;;;;;9.30;2.70;;;;;;;25.97;59.71;101097.02;117349;1186;21853;-62
2021/09/27 08:38:51;;;;;;;5.50;3.50;;;;;;;26.06;59.62;101094.42;117318;1185;21891;-62
2021/09/27 08:41:21;;;;;;;5.40;2.20;;;;;;;26.18;59.75;101095.27;117355;1185;22640;-63
2021/09/27 08:44:24;;;;;;;6.50;3.50;;;;;;;26.32;59.70;101096.19;117354;1183;22904;-63
2021/09/27 08:46:55;;;;;;;5.70;2.30;;;;;;;26.45;59.61;101093.81;117386;1185;21863;-62
2021/09/27 08:49:46;;;;;;;5.40;2.40;;;;;;;26.58;59.61;101087.03;117363;1185;21848;-62
2021/09/27 08:52:17;;;;;;;3.80;1.60;;;;;;;26.65;59.37;101087.98;117270;1188;23545;-62
2021/09/27 08:54:46;;;;;;;4.10;1.50;;;;;;;26.67;59.34;101087.30;117321;1185;22928;-62
2021/09/27 08:57:34;;;;;;;5.20;1.80;;;;;;;26.64;59.30;101086.77;117388;1183;22905;-63
2021/09/27 09:00:03;;;;;;;3.50;1.90;;;;;;;26.74;59.39;101087.94;117384;1183;23519;-63
2021/09/27 09:02:50;;;;;;;4.00;1.90;;;;;;;26.85;59.45;101090.77;117384;1183;23438;-62
2021/09/27 09:05:48;;;;;;;5.70;2.00;;;;;;;26.94;59.15;101084.73;117278;1187;21855;-62
2021/09/27 09:08:44;;;;;;;3.70;1.60;;;;;;;27.10;59.36;101080.39;117222;1185;21870;-62
2021/09/27 09:11:22;;;;;;;5.70;2.30;;;;;;;27.28;59.41;101073.16;117291;1185;23535;-62
2021/09/27 09:13:57;;;;;;;4.80;2.00;;;;;;;27.40;59.02;101073.59;117248;1186;23576;-62
2021/09/27 09:16:45;;;;;;;4.50;1.40;;;;;;;27.58;59.01;101075.68;117261;1185;21859;-62
2021/09/27 09:19:16;;;;;;;15.10;2.90;;;;;;;27.81;58.88;101073.33;117307;1183;22723;-62
2021/09/27 09:21:57;;;;;;;3.70;1.40;;;;;;;27.83;58.54;101070.27;117437;1185;24119;-63
2021/09/27 09:24:46;;;;;;;5.00;1.20;;;;;;;27.76;58.43;101066.85;117258;1185;23531;-63
2021/09/27 09:27:14;;;;;;;5.20;1.20;;;;;;;27.88;58.75;101066.88;117307;1183;21864;-63
2021/09/27 09:29:44;;;;;;;3.10;1.00;;;;;;;27.95;58.66;101063.31;117359;1186;21901;-62
2021/09/27 09:32:25;;;;;;;3.50;1.40;;;;;;;27.95;58.55;101062.17;117346;1183;21853;-62
2021/09/27 09:35:25;;;;;;;3.10;1.30;;;;;;;27.99;58.75;101060.23;117327;1184;21867;-57
2021/09/27 09:37:57;;;;;;;4.60;1.10;;;;;;;27.90;58.41;101054.08;117308;1182;23478;-57
2021/09/27 09:40:33;;;;;;;5.20;1.40;;;;;;;27.91;58.59;101052.74;117272;1186;22080;-58
2021/09/27 09:43:24;;;;;;;2.30;0.90;;;;;;;28.08;58.78;101056.88;117278;1183;23466;-57
2021/09/27 09:46:34;;;;;;;9.10;1.60;;;;;;;28.08;58.18;101054.73;117272;1183;22812;-57
2021/09/27 09:49:11;;;;;;;4.80;1.40;;;;;;;27.81;57.87;101048.96;117283;1182;21995;-58
2021/09/27 09:52:01;;;;;;;2.60;1.50;;;;;;;27.71;57.76;101054.74;117335;1186;21870;-58
2021/09/27 09:54:30;;;;;;;2.80;1.20;;;;;;;27.55;57.57;101053.23;117292;1185;22679;-58
2021/09/27 09:56:58;;;;;;;3.70;1.60;;;;;;;27.50;57.67;101058.13;117354;1185;21848;-57
2021/09/27 10:00:00;;;;;;;7.50;1.50;;;;;;;27.51;57.72;101056.02;117197;1186;21912;-58
2021/09/27 10:02:29;;;;;;;6.10;2.30;;;;;;;27.45;57.72;101054.48;117159;1185;21859;-57
2021/09/27 10:05:07;;;;;;;6.70;3.20;;;;;;;27.37;57.70;101054.86;117292;1183;23685;-57
2021/09/27 10:07:50;;;;;;;14.80;11.50;;;;;;;27.28;57.66;101051.15;117399;1183;22918;-57
2021/09/27 10:10:40;;;;;;;7.90;5.00;;;;;;;27.11;57.33;101047.16;117226;1186;23547;-56
2021/09/27 10:13:36;;;;;;;5.90;3.10;;;;;;;27.02;57.53;101046.40;117097;1189;22550;-56
2021/09/27 10:16:16;;;;;;;4.60;2.20;;;;;;;27.11;57.89;101046.11;117306;1185;21986;-57
2021/09/27 10:18:46;;;;;;;4.80;1.50;;;;;;;27.31;57.80;101043.95;117322;1182;22097;-58
2021/09/27 10:21:18;;;;;;;8.50;1.90;;;;;;;27.53;57.87;101040.02;117261;1186;23576;-56
2021/09/27 10:24:40;;;;;;;3.30;1.60;;;;;;;27.74;57.66;101036.48;117240;1186;22804;-57
2021/09/27 10:27:35;;;;;;;4.20;1.50;;;;;;;27.84;57.41;101029.98;117204;1182;23587;-57
2021/09/27 10:30:30;;;;;;;3.40;0.90;;;;;;;27.90;57.41;101029.39;117241;1182;23560;-55
2021/09/27 10:33:02;;;;;;;3.30;1.40;;;;;;;28.02;57.62;101026.27;117313;1185;21853;-55
2021/09/27 10:35:57;;;;;;;4.60;2.00;;;;;;;28.27;57.93;101023.02;117293;1186;22982;-56
2021/09/27 10:38:29;;;;;;;5.10;2.10;;;;;;;28.51;57.79;101023.30;117281;1185;23553;-57
2021/09/27 10:41:02;;;;;;;3.30;1.30;;;;;;;28.72;57.85;101023.17;117313;1186;23547;-56
2021/09/27 10:43:31;;;;;;;4.10;1.10;;;;;;;28.82;57.29;101027.27;117319;1182;23548;-56
2021/09/27 10:46:01;;;;;;;6.30;3.10;;;;;;;28.74;57.02;101024.63;117137;1185;23576;-56
2021/09/27 10:48:30;;;;;;;4.40;2.10;;;;;;;28.65;56.97;101023.36;117325;1186;23825;-56
2021/09/27 10:51:18;;;;;;;3.80;1.50;;;;;;;28.74;57.16;101026.41;117190;1188;21894;-57
2021/09/27 10:53:52;;;;;;;2.40;1.30;;;;;;;28.91;57.27;101023.61;117328;1186;23444;-57
2021/09/27 10:56:30;;;;;;;2.90;1.60;;;;;;;29.05;57.32;101022.31;117185;1185;23112;-56
2021/09/27 10:59:13;;;;;;;3.50;1.70;;;;;;;29.21;57.47;101021.23;117257;1183;23563;-56
2021/09/27 11:01:54;;;;;;;5.60;3.00;;;;;;;29.40;57.29;101023.35;117289;1183;21858;-57
2021/09/27 11:04:40;;;;;;;5.30;3.30;;;;;;;29.43;56.83;101020.20;117305;1185;23579;-57
2021/09/27 11:07:36;;;;;;;3.40;1.70;;;;;;;29.40;56.90;101018.10;117229;1180;21885;-57
2021/09/27 11:10:29;;;;;;;2.50;1.40;;;;;;;29.34;56.72;101014.64;117223;1183;21888;-58
2021/09/27 11:13:37;;;;;;;4.00;1.10;;;;;;;29.22;56.69;101016.63;117330;1185;23479;-57
2021/09/27 11:16:32;;;;;;;1.70;1.00;;;;;;;29.21;56.73;101022.66;117457;1182;21867;-57
2021/09/27 11:19:26;;;;;;;4.30;1.30;;;;;;;29.22;56.71;101019.67;117263;1188;23614;-58
2021/09/27 11:22:17;;;;;;;3.10;1.10;;;;;;;29.13;56.53;101013.44;117377;1186;21867;-58
2021/09/27 11:24:49;;;;;;;5.40;1.40;;;;;;;29.04;56.41;101008.86;117289;1185;21870;-57
2021/09/27 11:27:17;;;;;;;2.00;1.00;;;;;;;29.06;56.46;101010.20;117294;1186;21866;-57
2021/09/27 11:29:46;;;;;;;4.80;1.60;;;;;;;28.99;56.25;101007.14;117367;1186;23640;-57
2021/09/27 11:32:19;;;;;;;6.20;1.40;;;;;;;28.82;55.76;101003.95;117333;1182;22919;-57
2021/09/27 11:35:14;;;;;;;3.50;1.40;;;;;;;28.71;55.95;101002.27;117365;1185;22632;-57
2021/09/27 11:37:42;;;;;;;3.70;1.50;;;;;;;28.68;56.05;100997.28;117298;1185;21859;-58
2021/09/27 11:40:10;;;;;;;2.40;1.40;;;;;;;28.68;56.28;100988.39;117338;1184;21889;-58
2021/09/27 11:43:05;;;;;;;3.80;1.40;;;;;;;28.74;56.13;100988.45;117324;1182;22625;-58
2021/09/27 11:45:48;;;;;;;4.00;1.00;;;;;;;28.76;55.74;100989.79;117337;1185;23554;-56
2021/09/27 11:48:20;;;;;;;3.20;1.60;;;;;;;28.61;55.57;100981.34;117265;1185;23570;-58
2021/09/27 11:51:04;;;;;;;5.30;1.70;;;;;;;28.40;55.54;100985.75;117389;1182;23553;-59
2021/09/27 11:53:33;;;;;;;2.90;1.50;;;;;;;28.27;55.80;100994.09;117413;1182;23652;-57
2021/09/27 11:56:09;;;;;;;6.60;1.60;;;;;;;28.25;55.92;100996.41;117293;1184;23570;-57
2021/09/27 11:58:37;;;;;;;3.50;1.50;;;;;;;28.24;55.97;100993.28;117278;1183;22631;-56
2021/09/27 12:01:18;;;;;;;3.60;1.20;;;;;;;28.35;55.97;100993.73;117365;1186;21878;-55
2021/09/27 12:03:57;;;;;;;3.00;1.50;;;;;;;28.40;55.89;100985.92;117256;1186;21867;-57
2021/09/27 12:06:31;;;;;;;3.50;1.80;;;;;;;28.48;55.80;100979.48;117312;1183;23692;-56
2021/09/27 12:09:09;;;;;;;2.80;1.30;;;;;;;28.49;55.77;100980.35;117313;1182;23618;-56